createdAt,value
2023-05-22T00:04:43.966Z,19.5
2023-05-22T00:16:10.674Z,19.5
2023-05-22T00:22:03.746Z,19.5
2023-05-22T00:27:55.156Z,19.5
2023-05-22T00:33:46.133Z,19.5
2023-05-22T00:39:38.488Z,19.5
2023-05-22T00:45:30.096Z,19.5
2023-05-22T00:51:21.155Z,19.5
2023-05-22T00:57:12.378Z,19.5
2023-05-22T01:03:05.004Z,19.5
2023-05-22T01:08:56.973Z,19.5
2023-05-22T01:14:48.911Z,19.5
2023-05-22T01:20:41.017Z,19.5
2023-05-22T01:26:32.502Z,19.5
2023-05-22T01:32:24.440Z,19.5
2023-05-22T01:38:15.732Z,19.5
2023-05-22T01:44:07.315Z,19.5
2023-05-22T01:49:59.924Z,19.5
2023-05-22T01:55:50.470Z,19.5
2023-05-22T02:01:42.352Z,19.5
2023-05-22T02:07:35.914Z,19.5
2023-05-22T02:13:27.383Z,19.5
2023-05-22T02:24:56.039Z,19.5
2023-05-22T02:30:47.704Z,19.5
2023-05-22T02:36:39.073Z,19.5
2023-05-22T02:42:31.375Z,19.5
2023-05-22T02:48:23.562Z,19.5
2023-05-22T02:54:14.257Z,19.6
2023-05-22T03:00:06.108Z,19.6
2023-05-22T03:05:58.490Z,19.5
2023-05-22T03:11:49.974Z,19.5
2023-05-22T03:17:42.108Z,19.5
2023-05-22T03:23:33.770Z,19.5
2023-05-22T03:29:24.892Z,19.5
2023-05-22T03:35:17.474Z,19.5
2023-05-22T03:40:53.529Z,19.5
2023-05-22T03:46:31.064Z,19.5
2023-05-22T03:52:25.877Z,19.6
2023-05-22T03:58:17.008Z,19.5
2023-05-22T04:04:07.723Z,19.6
2023-05-22T04:10:00.159Z,19.6
2023-05-22T04:15:52.040Z,19.5
2023-05-22T04:21:43.017Z,19.6
2023-05-22T04:27:34.865Z,19.5
2023-05-22T04:33:11.309Z,19.6
2023-05-22T04:38:46.841Z,19.6
2023-05-22T04:44:40.741Z,19.6
2023-05-22T04:50:33.132Z,19.6
2023-05-22T04:56:35.176Z,19.6
2023-05-22T05:02:29.585Z,19.6
2023-05-22T05:08:23.051Z,19.6
2023-05-22T05:14:13.890Z,19.6
2023-05-22T05:20:09.318Z,19.6
2023-05-22T05:25:45.486Z,19.6
2023-05-22T05:31:36.263Z,19.6
2023-05-22T05:37:13.117Z,19.6
2023-05-22T05:43:04.269Z,19.6
2023-05-22T05:48:55.456Z,19.6
2023-05-22T05:54:47.230Z,19.6
2023-05-22T06:00:40.341Z,19.6
2023-05-22T06:06:33.436Z,19.6
2023-05-22T06:12:09.670Z,19.6
2023-05-22T06:18:03.027Z,19.6
2023-05-22T06:23:54.448Z,19.7
2023-05-22T06:29:46.168Z,19.7
2023-05-22T06:35:59.542Z,19.7
2023-05-22T06:41:50.381Z,19.7
2023-05-22T06:47:43.219Z,19.7
2023-05-22T06:53:35.607Z,19.7
2023-05-22T06:59:26.785Z,19.7
2023-05-22T07:05:19.950Z,19.7
2023-05-22T07:11:15.303Z,19.7
2023-05-22T07:17:08.844Z,19.7
2023-05-22T07:23:02.826Z,19.8
2023-05-22T07:28:54.876Z,19.8
2023-05-22T07:34:47.072Z,19.8
2023-05-22T07:40:42.029Z,19.8
2023-05-22T07:46:35.069Z,19.8
2023-05-22T07:52:26.346Z,19.8
2023-05-22T07:58:20.842Z,19.9
2023-05-22T08:09:54.138Z,19.9
2023-05-22T08:16:17.117Z,19.9
2023-05-22T08:27:47.515Z,19.9
2023-05-22T08:33:41.405Z,19.9
2023-05-22T08:39:33.892Z,19.9
2023-05-22T08:45:27.181Z,19.9
2023-05-22T08:51:19.986Z,19.9
2023-05-22T08:57:18.989Z,19.9
2023-05-22T09:03:12.509Z,19.9
2023-05-22T09:09:18.172Z,19.9
2023-05-22T09:15:11.782Z,19.9
2023-05-22T09:21:06.968Z,19.9
2023-05-22T09:27:10.776Z,19.9
2023-05-22T09:33:03.644Z,19.9
2023-05-22T09:38:56.222Z,19.9
2023-05-22T09:44:51.305Z,19.9
2023-05-22T09:50:44.565Z,19.9
2023-05-22T09:56:51.477Z,19.9
2023-05-22T10:02:46.981Z,19.9
2023-05-22T10:08:42.295Z,20
2023-05-22T10:14:37.720Z,20
2023-05-22T10:20:35.537Z,20
2023-05-22T10:32:06.095Z,20
2023-05-22T10:38:10.947Z,20
2023-05-22T10:44:04.786Z,20
2023-05-22T10:49:43.951Z,20
2023-05-22T10:55:38.285Z,20
2023-05-22T11:01:32.455Z,20
2023-05-22T11:07:35.891Z,20
2023-05-22T11:13:32.110Z,20
2023-05-22T11:19:40.195Z,20.1
2023-05-22T11:25:33.014Z,20
2023-05-22T11:31:57.508Z,20.1
2023-05-22T11:37:35.330Z,20.1
2023-05-22T11:43:28.990Z,20.1
2023-05-22T11:49:25.070Z,20.1
2023-05-22T11:55:29.436Z,20.1
2023-05-22T12:01:24.723Z,20.1
2023-05-22T12:07:24.975Z,20.1
2023-05-22T12:13:21.261Z,20.1
2023-05-22T12:18:59.990Z,20.1
2023-05-22T12:24:55.774Z,20.1
2023-05-22T12:30:52.695Z,20.1
2023-05-22T12:42:27.465Z,20.1
2023-05-22T12:54:05.610Z,20.1
2023-05-22T13:00:01.104Z,20.1
2023-05-22T13:05:57.020Z,20.1
2023-05-22T13:11:36.838Z,20.1
2023-05-22T13:17:39.076Z,20.1
2023-05-22T13:23:41.585Z,20.1
2023-05-22T13:35:25.194Z,20.1
2023-05-22T13:41:22.153Z,20.1
2023-05-22T13:47:17.190Z,20.1
2023-05-22T13:52:57.555Z,20.1
2023-05-22T13:58:51.170Z,20.1
2023-05-22T14:04:15.727Z,20.2
2023-05-22T14:09:53.754Z,20.2
2023-05-22T14:15:30.685Z,20.2
2023-05-22T14:21:07.788Z,20.2
2023-05-22T14:27:12.243Z,20.3
2023-05-22T14:33:05.392Z,20.3
2023-05-22T14:38:42.492Z,20.3
2023-05-22T14:44:03.833Z,20.3
2023-05-22T14:50:03.013Z,20.3
2023-05-22T14:56:02.374Z,20.3
2023-05-22T15:01:55.817Z,20.2
2023-05-22T15:07:59.531Z,20.2
2023-05-22T15:13:51.305Z,20.2
2023-05-22T15:19:44.853Z,20.2
2023-05-22T15:25:51.617Z,20.1
2023-05-22T15:31:44.504Z,20.1
2023-05-22T15:37:37.464Z,20.1
2023-05-22T15:43:42.558Z,20.1
2023-05-22T15:49:34.855Z,20.2
2023-05-22T15:55:29.925Z,20.2
2023-05-22T16:01:24.439Z,20.2
2023-05-22T16:07:02.157Z,20.3
2023-05-22T16:12:55.564Z,20.3
2023-05-22T16:18:53.344Z,20.3
2023-05-22T16:24:58.520Z,20.3
2023-05-22T16:30:54.360Z,20.3
2023-05-22T16:42:26.657Z,20.3
2023-05-22T16:48:19.801Z,20.3
2023-05-22T16:54:12.603Z,20.3
2023-05-22T17:00:04.868Z,20.3
2023-05-22T17:05:59.318Z,20.3
2023-05-22T17:11:36.616Z,20.3
2023-05-22T17:17:28.799Z,20.3
2023-05-22T17:23:24.304Z,20.3
2023-05-22T17:34:51.331Z,20.3
2023-05-22T17:40:59.412Z,20.3
2023-05-22T17:46:52.520Z,20.3
2023-05-22T17:52:44.517Z,20.3
2023-05-22T17:58:23.325Z,20.4
2023-05-22T18:03:46.077Z,20.4
2023-05-22T18:09:41.204Z,20.4
2023-05-22T18:15:49.497Z,20.4
2023-05-22T18:21:42.263Z,20.4
2023-05-22T18:27:03.778Z,20.4
2023-05-22T18:32:56.184Z,20.4
2023-05-22T18:38:49.649Z,20.4
2023-05-22T18:44:41.663Z,20.4
2023-05-22T18:50:35.022Z,20.4
2023-05-22T18:56:27.504Z,20.4
2023-05-22T19:02:20.264Z,20.4
2023-05-22T19:07:27.825Z,20.4
2023-05-22T19:12:53.192Z,20.4
2023-05-22T19:18:14.721Z,20.4
2023-05-22T19:29:01.441Z,20.4
2023-05-22T19:34:39.504Z,20.4
2023-05-22T19:40:32.338Z,20.4
2023-05-22T19:52:03.423Z,20.4
2023-05-22T19:57:55.880Z,20.3
2023-05-22T20:20:26.959Z,20.3
2023-05-22T20:26:19.432Z,20.4
2023-05-22T20:32:12.151Z,20.4
2023-05-22T20:38:05.669Z,20.3
2023-05-22T20:43:58.006Z,20.3
2023-05-22T20:55:27.942Z,20.4
2023-05-22T21:01:19.258Z,20.4
2023-05-22T21:07:12.879Z,20.4
2023-05-22T21:13:07.358Z,20.4
2023-05-22T21:18:59.641Z,20.4
2023-05-22T21:24:52.830Z,20.4
2023-05-22T21:30:45.543Z,20.4
2023-05-22T21:36:38.767Z,20.4
2023-05-22T21:42:16.200Z,20.4
2023-05-22T21:48:21.557Z,20.4
2023-05-22T21:54:14.766Z,20.4
2023-05-22T22:00:07.569Z,20.3
2023-05-22T22:06:01.270Z,20.3
2023-05-22T22:11:53.561Z,20.3
2023-05-22T22:17:46.327Z,20.3
2023-05-22T22:23:52.547Z,20.3
2023-05-22T22:29:44.029Z,20.3
2023-05-22T22:35:37.172Z,20.3
2023-05-22T22:52:48.004Z,20.3
2023-05-22T22:58:41.778Z,20.3
2023-05-22T23:04:33.831Z,20.3
2023-05-22T23:10:27.467Z,20.3
2023-05-22T23:16:20.393Z,20.3
2023-05-22T23:21:56.641Z,20.3
2023-05-22T23:27:21.911Z,20.3
2023-05-22T23:32:58.337Z,20.3
2023-05-22T23:38:34.065Z,20.3
2023-05-22T23:44:11.676Z,20.3
2023-05-22T23:50:03.819Z,20.3
2023-05-22T23:55:55.373Z,20.3
